createdAt,value
2023-06-19T00:04:23.537Z,96644.25
2023-06-19T00:09:25.564Z,96640.47
2023-06-19T00:14:27.558Z,96652.53
2023-06-19T00:19:30.976Z,96647.97
2023-06-19T00:24:33.082Z,96652.00
2023-06-19T00:29:35.482Z,96645.25
2023-06-19T00:34:38.884Z,96651.81
2023-06-19T00:39:43.777Z,96654.25
2023-06-19T00:44:46.814Z,96649.63
2023-06-19T00:49:52.016Z,96644.78
2023-06-19T00:54:54.947Z,96636.13
2023-06-19T00:59:57.886Z,96625.56
2023-06-19T01:05:01.798Z,96627.97
2023-06-19T01:10:07.955Z,96622.88
2023-06-19T01:15:10.386Z,96625.97
2023-06-19T01:20:15.498Z,96620.06
2023-06-19T01:25:18.860Z,96618.78
2023-06-19T01:30:21.318Z,96613.97
2023-06-19T01:35:25.499Z,96619.97
2023-06-19T01:40:32.771Z,96620.50
2023-06-19T01:45:35.212Z,96619.31
2023-06-19T01:50:37.275Z,96612.72
2023-06-19T01:55:40.672Z,96611.94
2023-06-19T02:00:42.760Z,96619.31
2023-06-19T02:05:45.106Z,96619.84
2023-06-19T02:10:48.754Z,96632.88
2023-06-19T02:15:50.741Z,96633.66
2023-06-19T02:20:52.782Z,96635.41
2023-06-19T02:25:56.151Z,96631.31
2023-06-19T02:30:58.159Z,96632.28
2023-06-19T02:36:01.264Z,96625.97
2023-06-19T02:41:04.627Z,96628.56
2023-06-19T02:46:06.660Z,96628.56
2023-06-19T02:51:08.708Z,96630.81
2023-06-19T02:56:12.433Z,96637.22
2023-06-19T03:01:14.529Z,96631.13
2023-06-19T03:06:16.544Z,96645.50
2023-06-19T03:11:19.878Z,96641.34
2023-06-19T03:16:22.192Z,96637.59
2023-06-19T03:21:24.357Z,96641.25
2023-06-19T03:26:27.783Z,96649.53
2023-06-19T03:31:29.805Z,96648.00
2023-06-19T03:36:31.787Z,96656.28
2023-06-19T03:41:35.150Z,96652.69
2023-06-19T03:46:37.249Z,96661.81
2023-06-19T03:51:39.395Z,96665.06
2023-06-19T03:56:43.064Z,96670.13
2023-06-19T04:01:45.144Z,96669.94
2023-06-19T04:06:47.874Z,96660.63
2023-06-19T04:11:51.243Z,96662.28
2023-06-19T04:16:53.217Z,96664.38
2023-06-19T04:21:55.774Z,96667.19
2023-06-19T04:26:59.404Z,96664.78
2023-06-19T04:32:04.139Z,96667.28
2023-06-19T04:37:06.661Z,96660.53
2023-06-19T04:42:10.212Z,96672.94
2023-06-19T04:47:12.226Z,96675.66
2023-06-19T04:52:14.267Z,96680.94
2023-06-19T04:57:17.656Z,96684.88
2023-06-19T05:02:19.952Z,96679.44
2023-06-19T05:07:22.093Z,96676.47
2023-06-19T05:12:25.456Z,96680.59
2023-06-19T05:17:27.702Z,96676.84
2023-06-19T05:22:30.347Z,96693.06
2023-06-19T05:27:34.112Z,96687.16
2023-06-19T05:32:36.229Z,96700.59
2023-06-19T05:37:39.909Z,96700.44
2023-06-19T05:42:43.300Z,96711.53
2023-06-19T05:47:45.377Z,96707.94
2023-06-19T05:52:47.357Z,96703.03
2023-06-19T05:57:50.908Z,96711.03
2023-06-19T06:02:53.253Z,96708.88
2023-06-19T06:07:55.962Z,96715.75
2023-06-19T06:12:59.473Z,96730.97
2023-06-19T06:18:01.877Z,96734.91
2023-06-19T06:23:04.520Z,96738.22
2023-06-19T06:28:08.000Z,96744.16
2023-06-19T06:33:10.092Z,96749.19
2023-06-19T06:38:12.296Z,96741.69
2023-06-19T06:43:15.800Z,96744.16
2023-06-19T06:48:18.160Z,96744.28
2023-06-19T06:53:20.225Z,96755.47
2023-06-19T06:58:23.685Z,96760.59
2023-06-19T07:03:25.858Z,96766.34
2023-06-19T07:08:28.320Z,96760.88
2023-06-19T07:13:31.690Z,96776.03
2023-06-19T07:18:36.088Z,96777.84
2023-06-19T07:23:38.404Z,96775.78
2023-06-19T07:28:41.856Z,96783.78
2023-06-19T07:33:43.886Z,96784.22
2023-06-19T07:38:46.980Z,96793.50
2023-06-19T07:43:50.424Z,96795.38
2023-06-19T07:48:52.412Z,96792.63
2023-06-19T07:53:54.458Z,96804.47
2023-06-19T07:58:57.796Z,96800.50
2023-06-19T08:03:59.927Z,96796.00
2023-06-19T08:09:02.022Z,96800.53
2023-06-19T08:14:05.383Z,96792.88
2023-06-19T08:19:07.413Z,96795.47
2023-06-19T08:24:09.446Z,96796.66
2023-06-19T08:29:12.831Z,96786.06
2023-06-19T08:34:14.966Z,96788.97
2023-06-19T08:39:17.132Z,96791.13
2023-06-19T08:44:20.491Z,96785.78
2023-06-19T08:49:22.543Z,96779.88
2023-06-19T08:54:26.101Z,96793.75
2023-06-19T08:59:32.826Z,96781.81
2023-06-19T09:04:35.200Z,96777.06
2023-06-19T09:09:37.177Z,96782.06
2023-06-19T09:14:41.944Z,96784.56
2023-06-19T09:19:49.224Z,96786.22
2023-06-19T09:24:51.432Z,96782.09
2023-06-19T09:29:54.932Z,96777.66
2023-06-19T09:35:01.523Z,96776.03
2023-06-19T09:40:11.868Z,96782.88
2023-06-19T09:45:19.992Z,96782.72
2023-06-19T09:50:24.157Z,96785.59
2023-06-19T09:55:30.408Z,96774.69
2023-06-19T10:00:34.894Z,96781.72
2023-06-19T10:05:37.507Z,96777.19
2023-06-19T10:10:48.394Z,96781.09
2023-06-19T10:15:51.776Z,96786.22
2023-06-19T10:20:55.371Z,96789.34
2023-06-19T10:25:59.301Z,96783.03
2023-06-19T10:31:06.701Z,96774.50
2023-06-19T10:36:20.841Z,96782.75
2023-06-19T10:41:24.459Z,96773.56
2023-06-19T10:46:31.377Z,96773.69
2023-06-19T10:51:35.734Z,96774.19
2023-06-19T10:56:37.821Z,96777.03
2023-06-19T11:01:43.065Z,96779.44
2023-06-19T11:06:46.974Z,96768.63
2023-06-19T11:11:49.591Z,96784.44
2023-06-19T11:16:53.007Z,96768.03
2023-06-19T11:21:55.786Z,96772.44
2023-06-19T11:27:00.114Z,96771.56
2023-06-19T11:32:08.508Z,96775.31
2023-06-19T11:37:13.955Z,96777.94
2023-06-19T11:42:18.257Z,96774.78
2023-06-19T11:47:21.921Z,96763.75
2023-06-19T11:52:24.047Z,96763.38
2023-06-19T11:57:28.121Z,96769.72
2023-06-19T12:02:31.578Z,96762.75
2023-06-19T12:07:34.227Z,96761.28
2023-06-19T12:12:36.418Z,96768.97
2023-06-19T12:17:40.127Z,96757.50
2023-06-19T12:22:42.529Z,96758.59
2023-06-19T12:27:44.627Z,96754.25
2023-06-19T12:32:50.694Z,96754.69
2023-06-19T12:37:53.033Z,96745.34
2023-06-19T12:42:55.135Z,96751.09
2023-06-19T12:47:58.774Z,96737.44
2023-06-19T12:53:00.843Z,96738.59
2023-06-19T12:58:02.880Z,96734.13
2023-06-19T13:03:06.437Z,96734.53
2023-06-19T13:08:08.564Z,96731.69
2023-06-19T13:13:11.510Z,96733.44
2023-06-19T13:18:14.992Z,96735.72
2023-06-19T13:23:17.214Z,96727.22
2023-06-19T13:28:19.320Z,96725.03
2023-06-19T13:33:22.761Z,96729.13
2023-06-19T13:38:24.968Z,96726.78
2023-06-19T13:43:27.042Z,96717.69
2023-06-19T13:48:30.418Z,96722.06
2023-06-19T13:53:32.419Z,96718.44
2023-06-19T13:58:34.526Z,96717.09
2023-06-19T14:03:42.171Z,96721.22
2023-06-19T14:08:44.324Z,96719.94
2023-06-19T14:13:46.331Z,96716.41
2023-06-19T14:18:49.687Z,96719.81
2023-06-19T14:23:51.712Z,96706.63
2023-06-19T14:28:58.156Z,96716.47
2023-06-19T14:34:01.544Z,96714.88
2023-06-19T14:39:03.676Z,96714.75
2023-06-19T14:44:06.990Z,96724.59
2023-06-19T14:49:11.675Z,96724.72
2023-06-19T14:54:15.484Z,96718.22
2023-06-19T14:59:17.547Z,96718.38
2023-06-19T15:04:21.031Z,96704.69
2023-06-19T15:09:23.192Z,96719.94
2023-06-19T15:14:25.279Z,96715.31
2023-06-19T15:19:28.653Z,96706.75
2023-06-19T15:24:30.680Z,96694.44
2023-06-19T15:29:32.733Z,96705.53
2023-06-19T15:34:38.263Z,96696.00
2023-06-19T15:39:42.806Z,96700.22
2023-06-19T15:44:45.682Z,96704.06
2023-06-19T15:49:49.068Z,96700.50
2023-06-19T15:54:51.113Z,96700.25
2023-06-19T15:59:53.859Z,96702.06
2023-06-19T16:04:57.257Z,96697.66
2023-06-19T16:09:59.278Z,96699.84
2023-06-19T16:15:01.386Z,96686.94
2023-06-19T16:20:06.854Z,96697.06
2023-06-19T16:25:11.637Z,96690.94
2023-06-19T16:30:13.939Z,96694.91
2023-06-19T16:35:23.003Z,96701.34
2023-06-19T16:40:26.292Z,96695.09
2023-06-19T16:45:28.832Z,96700.81
2023-06-19T16:50:32.430Z,96696.91
2023-06-19T16:55:34.536Z,96691.44
2023-06-19T17:00:36.582Z,96704.19
2023-06-19T17:05:39.947Z,96700.81
2023-06-19T17:10:42.056Z,96687.19
2023-06-19T17:15:44.060Z,96686.81
2023-06-19T17:20:47.387Z,96678.91
2023-06-19T17:25:49.437Z,96679.63
2023-06-19T17:30:51.573Z,96680.66
2023-06-19T17:35:55.031Z,96688.25
2023-06-19T17:40:57.093Z,96685.38
2023-06-19T17:46:00.378Z,96683.03
2023-06-19T17:51:04.429Z,96678.44
2023-06-19T17:56:06.716Z,96684.81
2023-06-19T18:01:08.836Z,96680.09
2023-06-19T18:06:12.217Z,96681.06
2023-06-19T18:11:14.551Z,96671.59
2023-06-19T18:16:16.823Z,96666.66
2023-06-19T18:21:20.270Z,96660.78
2023-06-19T18:26:22.826Z,96661.03
2023-06-19T18:31:24.879Z,96660.22
2023-06-19T18:36:28.263Z,96658.25
2023-06-19T18:41:30.389Z,96659.03
2023-06-19T18:46:32.545Z,96664.34
2023-06-19T18:51:36.044Z,96670.91
2023-06-19T18:56:38.208Z,96672.50
2023-06-19T19:01:40.279Z,96685.84
2023-06-19T19:06:43.652Z,96679.84
2023-06-19T19:11:47.810Z,96687.38
2023-06-19T19:16:49.876Z,96691.22
2023-06-19T19:21:54.203Z,96693.94
2023-06-19T19:26:56.644Z,96699.13
2023-06-19T19:31:58.668Z,96704.97
2023-06-19T19:37:02.028Z,96704.78
2023-06-19T19:42:04.644Z,96708.19
2023-06-19T19:47:07.266Z,96713.63
2023-06-19T19:52:10.957Z,96714.50
2023-06-19T19:57:13.123Z,96718.44
2023-06-19T20:02:15.133Z,96723.41
2023-06-19T20:07:18.370Z,96723.28
2023-06-19T20:12:21.968Z,96729.50
2023-06-19T20:17:24.453Z,96730.25
2023-06-19T20:22:27.924Z,96728.00
2023-06-19T20:27:30.022Z,96728.53
2023-06-19T20:32:31.980Z,96732.63
2023-06-19T20:37:35.362Z,96733.22
2023-06-19T20:42:37.356Z,96731.25
2023-06-19T20:47:39.423Z,96728.78
2023-06-19T20:52:42.681Z,96730.81
2023-06-19T20:57:44.942Z,96732.34
2023-06-19T21:02:47.157Z,96733.63
2023-06-19T21:07:52.645Z,96734.25
2023-06-19T21:12:54.688Z,96740.88
2023-06-19T21:17:56.757Z,96742.75
2023-06-19T21:23:00.145Z,96738.63
2023-06-19T21:28:02.170Z,96744.25
2023-06-19T21:33:04.421Z,96737.47
2023-06-19T21:38:07.863Z,96740.75
2023-06-19T21:43:10.712Z,96729.69
2023-06-19T21:48:12.824Z,96729.22
2023-06-19T21:53:16.146Z,96735.81
2023-06-19T21:58:18.219Z,96724.13
2023-06-19T22:03:20.350Z,96721.59
2023-06-19T22:08:34.104Z,96726.41
2023-06-19T22:13:43.907Z,96728.44
2023-06-19T22:18:45.927Z,96728.91
2023-06-19T22:23:49.561Z,96718.53
2023-06-19T22:28:51.549Z,96722.66
2023-06-19T22:33:53.728Z,96716.06
2023-06-19T22:38:57.065Z,96729.47
2023-06-19T22:44:02.440Z,96725.16
2023-06-19T22:49:04.961Z,96720.63
2023-06-19T22:54:08.431Z,96717.88
2023-06-19T22:59:10.479Z,96717.34
2023-06-19T23:04:12.500Z,96713.56
2023-06-19T23:09:15.872Z,96699.63
2023-06-19T23:14:17.951Z,96713.81
2023-06-19T23:19:20.080Z,96718.38
2023-06-19T23:24:23.486Z,96712.59
2023-06-19T23:29:25.478Z,96708.81
2023-06-19T23:34:27.597Z,96718.19
2023-06-19T23:39:30.951Z,96721.16
2023-06-19T23:44:33.421Z,96718.38
2023-06-19T23:49:35.508Z,96713.06
2023-06-19T23:54:38.870Z,96704.44
2023-06-19T23:59:40.959Z,96710.28
